Terminal Aerodrome Forecast
Issued by NWS

Current Version | Previous Version | Graphics & Text | Print | Product List | Glossary On
Versions: 1 2 3 4 5 6 7 8 9 10 11 12 13 14 15 16 17 18 19 20 21 22 23 24 25 26 27 28
753
FTUS41 KRNK 281138
TAFLWB
TAF
KLWB 281138Z 2812/2912 00000KT 1SM BR VV001
      TEMPO 2812/2813 1/2SM FG
     FM281330 VRB03KT P6SM SKC
     FM281600 13006KT P6SM BKN060
     FM290200 00000KT P6SM SCT060 SCT250
     FM291000 12003KT P6SM BKN100 BKN250=

USA.gov is the U.S. government's official web portal to all federal, state and local government web resources and services.